createdAt,value
2018-11-28T00:00:44.416Z,79.30
2018-11-28T00:03:11.580Z,79.20
2018-11-28T00:05:38.753Z,79.40
2018-11-28T00:08:05.956Z,79.30
2018-11-28T00:10:33.131Z,79.30
2018-11-28T00:13:00.268Z,79.30
2018-11-28T00:15:27.432Z,80.00
2018-11-28T00:17:54.586Z,80.70
2018-11-28T00:20:22.591Z,79.80
2018-11-28T00:22:49.736Z,80.30
2018-11-28T00:25:17.377Z,79.90
2018-11-28T00:27:44.595Z,80.00
2018-11-28T00:30:13.667Z,80.30
2018-11-28T00:32:41.156Z,81.00
2018-11-28T00:35:10.620Z,80.20
2018-11-28T00:37:37.759Z,80.80
2018-11-28T00:40:05.999Z,79.50
2018-11-28T00:42:33.131Z,79.70
2018-11-28T00:45:00.244Z,79.70
2018-11-28T00:47:27.360Z,80.10
2018-11-28T00:49:54.522Z,79.60
2018-11-28T00:52:21.715Z,78.90
2018-11-28T00:54:48.880Z,79.10
2018-11-28T00:57:16.047Z,79.70
2018-11-28T00:59:43.220Z,79.60
2018-11-28T01:02:10.415Z,79.50
2018-11-28T01:04:37.576Z,78.40
2018-11-28T01:07:05.504Z,78.90
2018-11-28T01:11:59.837Z,78.90
2018-11-28T01:14:27.028Z,79.00
2018-11-28T01:16:54.180Z,78.80
2018-11-28T01:19:21.324Z,78.70
2018-11-28T01:21:48.471Z,79.10
2018-11-28T01:24:15.628Z,78.90
2018-11-28T01:26:42.800Z,79.00
2018-11-28T01:29:09.952Z,78.80
2018-11-28T01:31:37.116Z,78.70
2018-11-28T01:34:04.753Z,78.50
2018-11-28T01:36:31.869Z,78.50
2018-11-28T01:38:59.007Z,78.50
2018-11-28T01:41:26.131Z,78.70
2018-11-28T01:43:53.238Z,78.80
2018-11-28T01:46:20.367Z,79.30
2018-11-28T01:48:47.523Z,80.00
2018-11-28T01:51:14.636Z,80.30
2018-11-28T01:53:41.760Z,80.60
2018-11-28T01:56:08.887Z,79.40
2018-11-28T01:58:36.008Z,79.30
2018-11-28T02:01:03.284Z,80.20
2018-11-28T02:03:30.425Z,80.00
2018-11-28T02:05:57.588Z,80.30
2018-11-28T02:08:24.700Z,80.30
2018-11-28T02:10:51.838Z,80.20
2018-11-28T02:13:18.947Z,80.00
2018-11-28T02:15:46.088Z,80.20
2018-11-28T02:18:13.269Z,82.60
2018-11-28T02:20:40.364Z,79.80
2018-11-28T02:23:07.492Z,80.80
2018-11-28T02:25:34.640Z,80.10
2018-11-28T02:28:01.772Z,80.70
2018-11-28T02:30:28.933Z,80.60
2018-11-28T02:32:56.146Z,80.80
2018-11-28T02:35:23.281Z,80.60
2018-11-28T02:37:50.520Z,80.30
2018-11-28T02:40:18.330Z,80.00
2018-11-28T02:42:46.111Z,80.40
2018-11-28T02:45:15.102Z,80.60
2018-11-28T02:47:42.253Z,80.60
2018-11-28T02:50:09.443Z,80.60
2018-11-28T02:52:36.591Z,81.40
2018-11-28T02:57:31.279Z,81.20
2018-11-28T02:59:58.427Z,82.00
2018-11-28T03:02:25.609Z,80.90
2018-11-28T03:04:52.760Z,81.40
2018-11-28T03:09:47.072Z,81.40
2018-11-28T03:12:14.187Z,81.40
2018-11-28T03:14:41.508Z,81.60
2018-11-28T03:17:13.263Z,81.70
2018-11-28T03:19:40.444Z,81.80
2018-11-28T03:22:07.627Z,82.40
2018-11-28T03:24:34.777Z,82.20
2018-11-28T03:27:01.909Z,81.90
2018-11-28T03:29:29.038Z,81.80
2018-11-28T03:31:56.187Z,81.60
2018-11-28T03:34:23.372Z,81.40
2018-11-28T03:36:50.567Z,81.60
2018-11-28T03:39:17.777Z,82.30
2018-11-28T03:41:44.987Z,82.00
2018-11-28T03:44:12.136Z,82.70
2018-11-28T03:46:39.328Z,81.30
2018-11-28T03:49:06.552Z,81.80
2018-11-28T03:51:33.712Z,82.10
2018-11-28T03:54:00.880Z,81.80
2018-11-28T03:56:28.072Z,81.80
2018-11-28T03:58:55.279Z,82.40
2018-11-28T04:01:22.448Z,81.70
2018-11-28T04:03:49.634Z,81.40
2018-11-28T04:06:16.832Z,82.10
2018-11-28T04:08:44.024Z,81.20
2018-11-28T04:11:11.234Z,81.30
2018-11-28T04:13:38.416Z,81.70
2018-11-28T04:16:06.000Z,81.60
2018-11-28T04:18:33.195Z,81.80
2018-11-28T04:21:00.396Z,82.50
2018-11-28T04:23:27.555Z,82.30
2018-11-28T04:25:54.727Z,82.50
2018-11-28T04:28:21.898Z,83.40
2018-11-28T04:30:49.060Z,82.40
2018-11-28T04:33:16.199Z,82.20
2018-11-28T04:35:43.336Z,82.10
2018-11-28T04:38:10.476Z,82.10
2018-11-28T04:40:37.649Z,82.80
2018-11-28T04:43:04.824Z,82.00
2018-11-28T04:45:31.989Z,82.10
2018-11-28T04:47:59.119Z,82.10
2018-11-28T04:50:26.280Z,81.80
2018-11-28T04:52:53.436Z,81.80
2018-11-28T04:55:20.612Z,82.00
2018-11-28T04:57:47.903Z,82.80
2018-11-28T05:00:17.139Z,82.20
2018-11-28T05:02:44.286Z,82.10
2018-11-28T05:05:11.455Z,81.60
2018-11-28T05:07:39.316Z,81.50
2018-11-28T05:10:09.484Z,81.20
2018-11-28T05:12:36.669Z,82.00
2018-11-28T05:15:04.937Z,81.40
2018-11-28T05:17:32.151Z,82.10
2018-11-28T05:19:59.417Z,82.30
2018-11-28T05:22:26.553Z,81.40
2018-11-28T05:24:53.864Z,81.20
2018-11-28T05:27:21.028Z,81.40
2018-11-28T05:29:48.168Z,81.10
2018-11-28T05:32:15.310Z,81.20
2018-11-28T05:34:42.456Z,82.10
2018-11-28T05:37:09.620Z,81.10
2018-11-28T05:39:36.787Z,81.10
2018-11-28T05:42:04.192Z,81.80
2018-11-28T05:44:31.345Z,81.80
2018-11-28T05:46:58.491Z,81.50
2018-11-28T05:49:25.655Z,81.40
2018-11-28T05:51:52.797Z,81.80
2018-11-28T05:56:47.140Z,81.90
2018-11-28T05:59:14.300Z,81.50
2018-11-28T06:01:41.424Z,81.60
2018-11-28T06:04:08.586Z,81.60
2018-11-28T06:06:35.758Z,82.00
2018-11-28T06:09:04.205Z,81.90
2018-11-28T06:11:31.329Z,81.80
2018-11-28T06:13:58.468Z,81.80
2018-11-28T06:16:25.596Z,81.80
2018-11-28T06:18:52.787Z,81.80
2018-11-28T06:21:19.940Z,81.70
2018-11-28T06:23:47.122Z,81.40
2018-11-28T06:28:41.424Z,81.60
2018-11-28T06:31:08.576Z,82.40
2018-11-28T06:33:35.716Z,82.10
2018-11-28T06:36:02.888Z,82.00
2018-11-28T06:38:30.001Z,82.70
2018-11-28T06:40:57.163Z,83.00
2018-11-28T06:43:24.285Z,82.40
2018-11-28T06:45:51.421Z,82.20
2018-11-28T06:48:18.538Z,82.80
2018-11-28T06:50:45.685Z,83.00
2018-11-28T06:53:12.852Z,82.30
2018-11-28T06:55:40.028Z,82.40
2018-11-28T06:58:07.179Z,83.10
2018-11-28T07:00:34.407Z,82.20
2018-11-28T07:03:01.531Z,82.20
2018-11-28T07:07:55.856Z,82.20
2018-11-28T07:10:23.008Z,82.40
2018-11-28T07:12:50.201Z,82.60
2018-11-28T07:15:22.383Z,81.80
2018-11-28T07:17:49.513Z,82.40
2018-11-28T07:20:16.791Z,82.30
2018-11-28T07:22:43.963Z,82.20
2018-11-28T07:25:15.995Z,82.20
2018-11-28T07:27:45.429Z,81.60
2018-11-28T07:30:14.568Z,81.60
2018-11-28T07:32:41.748Z,81.40
2018-11-28T07:35:09.568Z,80.80
2018-11-28T07:37:36.883Z,81.00
2018-11-28T07:40:11.941Z,80.40
2018-11-28T07:42:39.354Z,80.10
2018-11-28T07:45:09.167Z,80.00
2018-11-28T07:47:36.324Z,80.20
2018-11-28T07:50:03.775Z,80.60
2018-11-28T07:52:30.888Z,81.20
2018-11-28T07:54:58.013Z,79.70
2018-11-28T07:57:25.181Z,79.30
2018-11-28T07:59:52.315Z,79.20
2018-11-28T08:02:19.447Z,79.90
2018-11-28T08:04:46.639Z,78.80
2018-11-28T08:07:13.788Z,79.00
2018-11-28T08:09:40.917Z,78.90
2018-11-28T08:12:08.087Z,78.70
2018-11-28T08:14:35.215Z,78.30
2018-11-28T08:17:02.366Z,77.80
2018-11-28T08:19:29.507Z,77.70
2018-11-28T08:21:56.648Z,78.10
2018-11-28T08:24:23.776Z,78.10
2018-11-28T08:26:50.903Z,78.70
2018-11-28T08:29:18.026Z,77.70
2018-11-28T08:31:45.204Z,77.50
2018-11-28T08:34:12.384Z,77.40
2018-11-28T08:36:39.548Z,76.90
2018-11-28T08:41:34.252Z,76.50
2018-11-28T08:44:01.415Z,76.70
2018-11-28T08:46:28.572Z,76.60
2018-11-28T08:48:56.727Z,75.80
2018-11-28T08:51:23.948Z,75.70
2018-11-28T08:53:51.131Z,75.30
2018-11-28T08:56:18.286Z,76.70
2018-11-28T08:58:45.440Z,75.50
2018-11-28T09:01:12.592Z,75.60
2018-11-28T09:03:39.738Z,75.70
2018-11-28T09:06:06.931Z,75.70
2018-11-28T09:11:01.263Z,75.80
2018-11-28T09:13:28.374Z,75.30
2018-11-28T09:15:55.537Z,75.50
2018-11-28T09:18:22.651Z,74.60
2018-11-28T09:20:49.779Z,74.60
2018-11-28T09:23:16.959Z,75.30
2018-11-28T09:25:44.067Z,74.50
2018-11-28T09:28:11.216Z,74.60
2018-11-28T09:30:38.364Z,74.70
2018-11-28T09:33:05.545Z,74.10
2018-11-28T09:35:32.712Z,74.50
2018-11-28T09:37:59.913Z,75.10
2018-11-28T09:40:27.036Z,73.70
2018-11-28T09:42:55.462Z,74.40
2018-11-28T09:45:22.594Z,73.80
2018-11-28T09:47:49.758Z,73.20
2018-11-28T09:50:24.585Z,73.40
2018-11-28T09:52:51.785Z,73.80
2018-11-28T09:55:21.058Z,73.30
2018-11-28T09:57:48.251Z,73.80
2018-11-28T10:00:24.860Z,73.10
2018-11-28T10:02:53.068Z,73.10
2018-11-28T10:05:21.440Z,74.00
2018-11-28T10:07:48.660Z,73.40
2018-11-28T10:10:15.843Z,73.40
2018-11-28T10:12:43.019Z,72.70
2018-11-28T10:15:13.748Z,72.70
2018-11-28T10:20:09.537Z,72.20
2018-11-28T10:22:36.684Z,71.70
2018-11-28T10:25:04.462Z,72.00
2018-11-28T10:27:31.624Z,72.10
2018-11-28T10:29:58.785Z,72.80
2018-11-28T10:32:25.915Z,72.50
2018-11-28T10:34:53.067Z,71.10
2018-11-28T10:37:20.244Z,71.70
2018-11-28T10:39:47.411Z,71.40
2018-11-28T10:44:41.808Z,71.20
2018-11-28T10:47:08.986Z,71.20
2018-11-28T10:49:36.175Z,71.50
2018-11-28T10:52:03.353Z,71.60
2018-11-28T10:54:30.547Z,71.80
2018-11-28T10:56:57.732Z,71.70
2018-11-28T10:59:24.884Z,72.00
2018-11-28T11:01:56.671Z,71.00
2018-11-28T11:04:24.785Z,70.90
2018-11-28T11:08:01.016Z,71.00
2018-11-28T11:10:34.008Z,70.80
2018-11-28T11:13:07.251Z,68.70
2018-11-28T11:15:34.432Z,70.40
2018-11-28T11:18:02.174Z,70.50
2018-11-28T11:22:56.060Z,70.10
2018-11-28T11:25:23.249Z,70.20
2018-11-28T11:27:50.455Z,70.60
2018-11-28T11:30:17.636Z,70.10
2018-11-28T11:32:44.844Z,70.10
2018-11-28T11:35:12.017Z,69.40
2018-11-28T11:37:39.196Z,69.90
2018-11-28T11:40:09.140Z,70.30
2018-11-28T11:45:04.055Z,69.00
2018-11-28T11:47:31.205Z,68.70
2018-11-28T11:49:58.409Z,68.70
2018-11-28T11:52:25.590Z,69.60
2018-11-28T11:54:52.785Z,69.30
2018-11-28T11:57:19.977Z,69.50
2018-11-28T11:59:47.156Z,69.40
2018-11-28T12:02:14.389Z,69.60
2018-11-28T12:04:41.592Z,69.90
2018-11-28T12:07:08.780Z,70.00
2018-11-28T12:09:35.961Z,69.90
2018-11-28T12:12:03.121Z,70.10
2018-11-28T12:14:30.299Z,69.70
2018-11-28T12:16:57.484Z,70.20
2018-11-28T12:19:24.675Z,70.20
2018-11-28T12:21:51.865Z,70.30
2018-11-28T12:24:19.015Z,69.70
2018-11-28T12:26:46.183Z,70.40
2018-11-28T12:29:13.342Z,69.10
2018-11-28T12:31:40.504Z,69.00
2018-11-28T12:34:07.684Z,69.10
2018-11-28T12:36:34.859Z,69.00
2018-11-28T12:39:02.052Z,69.40
2018-11-28T12:41:29.252Z,69.30
2018-11-28T12:43:56.405Z,69.40
2018-11-28T12:46:23.609Z,69.30
2018-11-28T12:48:50.830Z,69.60
2018-11-28T12:51:17.940Z,69.60
2018-11-28T12:53:45.098Z,68.90
2018-11-28T12:56:12.255Z,69.70
2018-11-28T12:58:39.407Z,69.30
2018-11-28T13:01:06.573Z,68.30
2018-11-28T13:03:33.751Z,68.80
2018-11-28T13:06:00.930Z,68.80
2018-11-28T13:08:28.136Z,68.70
2018-11-28T13:10:55.287Z,68.50
2018-11-28T13:13:22.489Z,68.40
2018-11-28T13:15:49.621Z,68.50
2018-11-28T13:18:16.777Z,69.10
2018-11-28T13:20:43.927Z,69.00
2018-11-28T13:23:12.367Z,69.30
2018-11-28T13:25:39.547Z,71.20
2018-11-28T13:28:06.836Z,70.20
2018-11-28T13:30:34.020Z,71.00
2018-11-28T13:33:01.151Z,73.20
2018-11-28T13:35:28.335Z,68.80
2018-11-28T13:40:27.713Z,71.90
2018-11-28T13:42:54.859Z,69.10
2018-11-28T13:45:27.292Z,70.00
2018-11-28T13:47:54.769Z,68.40
2018-11-28T13:50:21.953Z,67.40
2018-11-28T13:52:49.840Z,69.00
2018-11-28T13:55:39.700Z,67.90
2018-11-28T13:58:01.769Z,67.50
2018-11-28T14:00:28.885Z,67.30
2018-11-28T14:02:56.000Z,68.00
2018-11-28T14:05:23.183Z,68.80
2018-11-28T14:07:50.368Z,69.80
2018-11-28T14:10:17.507Z,69.50
2018-11-28T14:12:44.644Z,69.60
2018-11-28T14:17:39.728Z,70.10
2018-11-28T14:20:09.376Z,70.50
2018-11-28T14:22:37.430Z,71.30
2018-11-28T14:25:05.764Z,71.00
2018-11-28T14:27:32.903Z,71.80
2018-11-28T14:30:00.087Z,71.90
2018-11-28T14:32:27.268Z,72.10
2018-11-28T14:34:54.383Z,72.30
2018-11-28T14:37:21.500Z,72.90
2018-11-28T14:39:48.624Z,72.00
2018-11-28T14:42:15.755Z,72.00
2018-11-28T14:47:10.102Z,72.00
2018-11-28T14:49:37.249Z,72.00
2018-11-28T14:52:04.491Z,73.20
2018-11-28T14:54:31.629Z,73.20
2018-11-28T14:59:26.868Z,73.80
2018-11-28T15:01:54.003Z,74.60
2018-11-28T15:04:21.120Z,73.80
2018-11-28T15:06:51.974Z,74.20
2018-11-28T15:09:24.928Z,74.00
2018-11-28T15:11:52.046Z,73.30
2018-11-28T15:14:19.168Z,75.10
2018-11-28T15:16:46.288Z,75.70
2018-11-28T15:19:13.409Z,76.40
2018-11-28T15:21:40.535Z,76.90
2018-11-28T15:24:07.673Z,78.10
2018-11-28T15:26:34.859Z,78.10
2018-11-28T15:29:02.535Z,77.60
2018-11-28T15:31:29.760Z,77.60
2018-11-28T15:33:56.880Z,78.70
2018-11-28T15:36:23.995Z,78.70
2018-11-28T15:38:51.111Z,79.80
2018-11-28T15:41:18.260Z,79.20
2018-11-28T15:43:45.384Z,80.70
2018-11-28T15:46:14.850Z,80.60
2018-11-28T15:48:39.601Z,81.30
2018-11-28T15:51:06.759Z,81.90
2018-11-28T15:53:33.900Z,81.70
2018-11-28T15:56:01.196Z,82.20
2018-11-28T15:58:28.304Z,83.60
2018-11-28T16:00:55.475Z,82.70
2018-11-28T16:03:22.619Z,83.40
2018-11-28T16:05:49.753Z,82.90
2018-11-28T16:08:16.913Z,83.20
2018-11-28T16:10:44.072Z,83.00
2018-11-28T16:13:13.597Z,83.40
2018-11-28T16:15:46.583Z,83.00
2018-11-28T16:18:13.720Z,83.00
2018-11-28T16:20:40.855Z,83.20
2018-11-28T16:23:07.986Z,83.00
2018-11-28T16:25:35.114Z,82.90
2018-11-28T16:28:02.593Z,83.00
2018-11-28T16:30:29.756Z,82.50
2018-11-28T16:32:56.920Z,83.60
2018-11-28T16:35:24.050Z,83.40
2018-11-28T16:37:51.188Z,84.20
2018-11-28T16:40:18.319Z,84.30
2018-11-28T16:42:45.427Z,85.70
2018-11-28T16:45:13.760Z,86.00
2018-11-28T16:47:40.932Z,86.30
2018-11-28T16:50:08.749Z,87.50
2018-11-28T16:52:35.897Z,85.90
2018-11-28T16:55:03.208Z,87.10
2018-11-28T16:57:30.336Z,86.70
2018-11-28T16:59:57.452Z,86.90
2018-11-28T17:02:24.580Z,87.70
2018-11-28T17:04:51.696Z,87.70
2018-11-28T17:07:18.840Z,86.70
2018-11-28T17:09:45.996Z,87.30
2018-11-28T17:12:13.124Z,88.20
2018-11-28T17:14:40.308Z,87.70
2018-11-28T17:17:07.416Z,87.60
2018-11-28T17:19:34.553Z,88.10
2018-11-28T17:22:01.692Z,87.90
2018-11-28T17:24:28.828Z,88.50
2018-11-28T17:26:55.991Z,88.50
2018-11-28T17:29:23.124Z,89.00
2018-11-28T17:31:50.251Z,88.70
2018-11-28T17:34:17.383Z,88.50
2018-11-28T17:36:44.517Z,88.90
2018-11-28T17:39:11.963Z,89.30
2018-11-28T17:41:39.318Z,88.90
2018-11-28T17:44:06.468Z,89.50
2018-11-28T17:46:33.612Z,89.50
2018-11-28T17:49:00.836Z,88.40
2018-11-28T17:51:27.969Z,89.00
2018-11-28T17:53:55.120Z,89.70
2018-11-28T17:56:22.268Z,90.00
2018-11-28T17:58:49.408Z,89.80
2018-11-28T18:01:16.589Z,90.30
2018-11-28T18:03:43.760Z,89.30
2018-11-28T18:06:10.933Z,89.60
2018-11-28T18:08:38.084Z,90.30
2018-11-28T18:11:12.528Z,89.50
2018-11-28T18:13:40.155Z,89.50
2018-11-28T18:16:07.318Z,90.00
2018-11-28T18:18:34.483Z,89.40
2018-11-28T18:21:01.691Z,90.00
2018-11-28T18:23:28.918Z,89.00
2018-11-28T18:25:56.112Z,89.80
2018-11-28T18:28:23.280Z,90.20
2018-11-28T18:30:50.443Z,88.50
2018-11-28T18:33:17.631Z,88.40
2018-11-28T18:35:44.921Z,88.50
2018-11-28T18:38:12.108Z,89.10
2018-11-28T18:40:39.334Z,88.70
2018-11-28T18:43:08.205Z,89.10
2018-11-28T18:45:38.848Z,88.30
2018-11-28T18:48:06.117Z,88.30
2018-11-28T18:50:33.352Z,88.50
2018-11-28T18:53:00.540Z,88.60
2018-11-28T18:55:27.725Z,88.20
2018-11-28T18:57:55.556Z,88.70
2018-11-28T19:00:23.712Z,88.20
2018-11-28T19:02:51.264Z,88.50
2018-11-28T19:05:18.468Z,88.10
2018-11-28T19:07:45.664Z,88.50
2018-11-28T19:10:14.251Z,88.30
2018-11-28T19:12:41.439Z,89.20
2018-11-28T19:15:10.239Z,88.40
2018-11-28T19:17:37.433Z,89.00
2018-11-28T19:22:33.711Z,88.30
2018-11-28T19:25:00.921Z,89.20
2018-11-28T19:27:28.056Z,88.30
2018-11-28T19:29:55.213Z,89.10
2018-11-28T19:32:22.356Z,88.30
2018-11-28T19:34:49.484Z,88.30
2018-11-28T19:37:16.617Z,89.00
2018-11-28T19:39:43.764Z,88.60
2018-11-28T19:44:38.019Z,88.90
2018-11-28T19:47:05.191Z,88.60
2018-11-28T19:49:32.343Z,89.30
2018-11-28T19:51:59.476Z,88.20
2018-11-28T19:54:26.687Z,88.00
2018-11-28T19:56:53.855Z,87.70
2018-11-28T19:59:21.004Z,88.50
2018-11-28T20:01:48.175Z,87.60
2018-11-28T20:04:15.362Z,87.70
2018-11-28T20:06:42.570Z,87.50
2018-11-28T20:09:15.149Z,87.70
2018-11-28T20:11:42.308Z,87.70
2018-11-28T20:14:09.740Z,87.30
2018-11-28T20:16:36.918Z,88.10
2018-11-28T20:19:04.124Z,88.70
2018-11-28T20:21:31.313Z,87.90
2018-11-28T20:23:58.468Z,88.50
2018-11-28T20:26:25.644Z,88.50
2018-11-28T20:28:52.836Z,88.30
2018-11-28T20:33:47.244Z,87.70
2018-11-28T20:38:41.565Z,87.50
2018-11-28T20:41:08.780Z,87.50
2018-11-28T20:43:36.055Z,87.40
2018-11-28T20:46:03.228Z,87.30
2018-11-28T20:48:30.390Z,86.90
2018-11-28T20:50:57.595Z,87.10
2018-11-28T20:53:24.768Z,87.30
2018-11-28T20:55:52.037Z,88.00
2018-11-28T20:58:19.307Z,88.10
2018-11-28T21:00:46.551Z,88.20
2018-11-28T21:03:13.737Z,88.10
2018-11-28T21:05:41.006Z,88.70
2018-11-28T21:08:08.864Z,87.70
2018-11-28T21:10:37.081Z,87.50
2018-11-28T21:13:05.611Z,87.20
2018-11-28T21:15:32.825Z,87.10
2018-11-28T21:18:00.012Z,87.20
2018-11-28T21:20:27.159Z,86.90
2018-11-28T21:22:58.465Z,86.90
2018-11-28T21:25:25.672Z,86.50
2018-11-28T21:27:52.823Z,86.70
2018-11-28T21:32:48.196Z,87.00
2018-11-28T21:35:18.229Z,87.20
2018-11-28T21:37:45.415Z,87.30
2018-11-28T21:40:13.253Z,87.20
2018-11-28T21:42:40.451Z,86.90
2018-11-28T21:45:09.953Z,86.80
2018-11-28T21:47:37.183Z,87.00
2018-11-28T21:50:07.508Z,86.90
2018-11-28T21:52:41.488Z,86.60
2018-11-28T21:55:10.808Z,86.50
2018-11-28T21:57:37.973Z,87.40
2018-11-28T22:00:08.928Z,86.50
2018-11-28T22:02:36.102Z,86.60
2018-11-28T22:05:03.459Z,86.70
2018-11-28T22:07:30.612Z,86.50
2018-11-28T22:09:57.844Z,86.60
2018-11-28T22:12:25.027Z,86.30
2018-11-28T22:14:52.175Z,86.30
2018-11-28T22:17:19.326Z,86.60
2018-11-28T22:19:46.560Z,86.30
2018-11-28T22:22:13.712Z,86.10
2018-11-28T22:24:40.860Z,89.10
2018-11-28T22:27:08.052Z,86.30
2018-11-28T22:29:35.189Z,86.40
2018-11-28T22:34:29.625Z,86.90
2018-11-28T22:36:56.785Z,86.30
2018-11-28T22:39:23.955Z,86.10
2018-11-28T22:41:51.122Z,86.50
2018-11-28T22:44:18.283Z,86.70
2018-11-28T22:46:45.432Z,86.80
2018-11-28T22:49:12.581Z,86.90
2018-11-28T22:51:39.728Z,87.10
2018-11-28T22:54:06.856Z,87.20
2018-11-28T22:56:33.984Z,87.10
2018-11-28T22:59:01.143Z,86.80
2018-11-28T23:01:38.504Z,86.50
2018-11-28T23:04:05.694Z,86.10
2018-11-28T23:06:32.820Z,86.20
2018-11-28T23:08:59.956Z,86.50
2018-11-28T23:11:27.119Z,86.30
2018-11-28T23:13:55.041Z,86.30
2018-11-28T23:16:22.224Z,86.50
2018-11-28T23:18:49.404Z,86.50
2018-11-28T23:21:16.512Z,86.70
2018-11-28T23:23:43.659Z,86.20
2018-11-28T23:26:10.802Z,86.30
2018-11-28T23:28:37.915Z,86.00
2018-11-28T23:31:05.126Z,86.10
2018-11-28T23:33:32.303Z,86.20
2018-11-28T23:35:59.423Z,86.10
2018-11-28T23:38:26.543Z,86.50
2018-11-28T23:40:54.004Z,86.70
2018-11-28T23:43:21.130Z,86.40
2018-11-28T23:45:48.231Z,86.50
2018-11-28T23:48:15.356Z,86.90
2018-11-28T23:50:42.471Z,86.80
2018-11-28T23:53:09.709Z,86.80
2018-11-28T23:55:36.873Z,86.90
2018-11-28T23:58:04.056Z,86.90
